Time;durP1;ratioP1;P1;durP2;ratioP2;P2;SDS_P1;SDS_P2;PMS_P1;PMS_P2;Temp;Humidity;BMP_temperature;BMP_pressure;BME280_temperature;BME280_humidity;BME280_pressure;Samples;Min_cycle;Max_cycle;Signal;HPM_P1;HPM_P2
2023/01/09 00:01:11;;;;;;;5.20;2.10;;;;;;;;;;4960967;28;20298;-88
2023/01/09 00:03:37;;;;;;;3.10;1.80;;;;;;;;;;4971164;28;20179;-79
2023/01/09 00:06:03;;;;;;;4.20;2.00;;;;;;;;;;4971876;28;20198;-80
2023/01/09 00:08:29;;;;;;;5.70;2.33;;;;;;;;;;4975132;28;20179;-79
2023/01/09 00:10:55;;;;;;;3.13;2.17;;;;;;;;;;4959208;28;20187;-79
2023/01/09 00:13:22;;;;;;;5.03;2.43;;;;;;;;;;4976529;28;20226;-79
2023/01/09 00:15:48;;;;;;;6.13;2.57;;;;;;;;;;4958866;28;20202;-79
2023/01/09 00:18:14;;;;;;;3.47;1.77;;;;;;;;;;4978397;28;20214;-88
2023/01/09 00:20:40;;;;;;;3.40;1.67;;;;;;;;;;4964096;28;20183;-89
2023/01/09 00:23:06;;;;;;;3.27;1.70;;;;;;;;;;4980010;28;20210;-88
2023/01/09 00:25:32;;;;;;;2.67;1.63;;;;;;;;;;4979920;28;20186;-89
2023/01/09 00:27:58;;;;;;;3.70;1.60;;;;;;;;;;4964319;28;20214;-89
2023/01/09 00:30:24;;;;;;;2.27;1.40;;;;;;;;;;4963341;28;20186;-88
2023/01/09 00:32:50;;;;;;;2.37;1.23;;;;;;;;;;4978674;28;20179;-89
2023/01/09 00:35:18;;;;;;;2.70;1.20;;;;;;;;;;4975290;28;20274;-82
2023/01/09 00:37:44;;;;;;;2.83;1.43;;;;;;;;;;4958994;28;20298;-82
2023/01/09 00:40:10;;;;;;;4.20;1.57;;;;;;;;;;4954578;28;20206;-82
2023/01/09 00:42:36;;;;;;;2.77;1.13;;;;;;;;;;4975900;28;20182;-82
2023/01/09 00:45:05;;;;;;;2.10;1.10;;;;;;;;;;4974857;28;20181;-82
2023/01/09 00:47:33;;;;;;;1.87;1.23;;;;;;;;;;4975687;28;20178;-82
2023/01/09 00:50:00;;;;;;;2.13;1.20;;;;;;;;;;4971412;28;20191;-89
2023/01/09 00:52:26;;;;;;;2.37;1.20;;;;;;;;;;4977023;28;20183;-82
2023/01/09 00:54:52;;;;;;;3.03;1.10;;;;;;;;;;4958578;28;20181;-82
2023/01/09 00:57:18;;;;;;;2.27;1.00;;;;;;;;;;4942462;28;20217;-82
2023/01/09 00:59:45;;;;;;;2.07;1.00;;;;;;;;;;4963974;28;20202;-82
2023/01/09 01:02:11;;;;;;;3.53;1.13;;;;;;;;;;4958734;28;20194;-82
2023/01/09 01:07:41;;;;;;;2.13;1.10;;;;;;;;;;4971422;28;20260;-82
2023/01/09 01:10:09;;;;;;;2.03;1.00;;;;;;;;;;4945041;28;20199;-82
2023/01/09 01:12:35;;;;;;;1.87;1.07;;;;;;;;;;4963729;28;20288;-82
2023/01/09 01:15:01;;;;;;;1.00;0.87;;;;;;;;;;4957526;28;20191;-83
2023/01/09 01:17:27;;;;;;;1.33;1.00;;;;;;;;;;4958710;28;20323;-83
2023/01/09 01:19:53;;;;;;;1.23;1.00;;;;;;;;;;4963445;28;20248;-83
2023/01/09 01:22:19;;;;;;;3.40;1.00;;;;;;;;;;4958101;28;20190;-83
2023/01/09 01:24:45;;;;;;;2.07;1.10;;;;;;;;;;4957979;28;20265;-82
2023/01/09 01:27:11;;;;;;;1.07;0.90;;;;;;;;;;4944610;28;20277;-82
2023/01/09 01:29:37;;;;;;;1.50;1.20;;;;;;;;;;4961201;28;20289;-82
2023/01/09 01:32:03;;;;;;;2.83;1.40;;;;;;;;;;4952217;28;20189;-83
2023/01/09 01:34:32;;;;;;;2.67;1.27;;;;;;;;;;4965526;28;20207;-82
2023/01/09 01:36:58;;;;;;;1.73;1.30;;;;;;;;;;4965937;28;20210;-82
2023/01/09 01:39:24;;;;;;;3.20;1.70;;;;;;;;;;4947428;28;20282;-82
2023/01/09 01:41:51;;;;;;;3.50;1.90;;;;;;;;;;4968497;28;20184;-82
2023/01/09 01:44:35;;;;;;;3.27;1.43;;;;;;;;;;4951493;28;20175;-83
2023/01/09 01:47:02;;;;;;;2.80;1.43;;;;;;;;;;4985931;28;20182;-82
2023/01/09 01:49:28;;;;;;;4.17;2.00;;;;;;;;;;4968428;28;20175;-83
2023/01/09 01:51:54;;;;;;;3.10;1.80;;;;;;;;;;4957262;28;20186;-83
2023/01/09 01:54:25;;;;;;;4.97;2.13;;;;;;;;;;4976380;28;20195;-83
2023/01/09 01:56:55;;;;;;;4.33;2.23;;;;;;;;;;4969529;28;20202;-83
2023/01/09 01:59:40;;;;;;;2.93;2.20;;;;;;;;;;4967798;28;20251;-83
2023/01/09 02:02:07;;;;;;;2.23;1.90;;;;;;;;;;4974409;28;20175;-90
2023/01/09 02:04:35;;;;;;;6.27;2.60;;;;;;;;;;4968882;28;20223;-89
2023/01/09 02:07:02;;;;;;;4.13;2.20;;;;;;;;;;4969891;28;20230;-90
2023/01/09 02:09:28;;;;;;;4.70;2.40;;;;;;;;;;4967720;28;20175;-88
2023/01/09 02:11:56;;;;;;;3.07;2.00;;;;;;;;;;4962059;28;20198;-87
2023/01/09 02:14:23;;;;;;;3.27;2.20;;;;;;;;;;4961616;28;20269;-83
2023/01/09 02:17:14;;;;;;;2.67;2.30;;;;;;;;;;4961199;28;20221;-83
2023/01/09 02:19:43;;;;;;;6.10;2.60;;;;;;;;;;4962527;28;20179;-90
2023/01/09 02:22:18;;;;;;;2.73;2.30;;;;;;;;;;4977860;28;20211;-89
2023/01/09 02:25:00;;;;;;;3.37;2.23;;;;;;;;;;4979081;28;20189;-89
2023/01/09 02:27:44;;;;;;;5.20;2.70;;;;;;;;;;4977490;28;20278;-79
2023/01/09 02:30:16;;;;;;;5.43;2.00;;;;;;;;;;4977102;28;20190;-80
2023/01/09 02:33:03;;;;;;;4.60;2.23;;;;;;;;;;4978943;28;20273;-80
2023/01/09 02:35:35;;;;;;;3.53;2.23;;;;;;;;;;4980251;28;20178;-79
2023/01/09 02:38:01;;;;;;;3.30;2.43;;;;;;;;;;4993075;28;20270;-80
2023/01/09 02:40:41;;;;;;;4.37;2.50;;;;;;;;;;4977903;28;20259;-80
2023/01/09 02:43:07;;;;;;;3.73;2.33;;;;;;;;;;4960704;28;20183;-79
2023/01/09 02:45:33;;;;;;;3.73;2.30;;;;;;;;;;4944746;28;20213;-79
2023/01/09 02:47:59;;;;;;;4.93;2.30;;;;;;;;;;4960641;28;20183;-83
2023/01/09 02:50:36;;;;;;;2.53;2.13;;;;;;;;;;4961956;28;20245;-83
2023/01/09 02:53:02;;;;;;;3.63;2.20;;;;;;;;;;4977059;28;20183;-83
2023/01/09 02:55:28;;;;;;;4.43;2.33;;;;;;;;;;4964269;28;20189;-83
2023/01/09 02:58:03;;;;;;;3.07;2.40;;;;;;;;;;4976472;28;20183;-83
2023/01/09 03:00:35;;;;;;;4.93;2.80;;;;;;;;;;4977414;28;20182;-83
2023/01/09 03:03:04;;;;;;;4.17;2.50;;;;;;;;;;4976579;28;20266;-83
2023/01/09 03:05:32;;;;;;;4.10;2.23;;;;;;;;;;4976519;28;20179;-79
2023/01/09 03:08:01;;;;;;;2.93;2.30;;;;;;;;;;4976601;28;20179;-79
2023/01/09 03:10:32;;;;;;;6.20;2.30;;;;;;;;;;4977133;28;20187;-79
2023/01/09 03:13:00;;;;;;;3.37;2.37;;;;;;;;;;4968804;28;20235;-79
2023/01/09 03:15:27;;;;;;;5.07;2.47;;;;;;;;;;4941409;29;20218;-79
2023/01/09 03:17:54;;;;;;;4.47;2.63;;;;;;;;;;4957779;29;20306;-79
2023/01/09 03:20:23;;;;;;;5.77;2.57;;;;;;;;;;4961855;28;20218;-90
2023/01/09 03:22:59;;;;;;;5.70;2.90;;;;;;;;;;4976489;28;20202;-89
2023/01/09 03:25:26;;;;;;;5.80;2.57;;;;;;;;;;4976173;28;20178;-91
2023/01/09 03:27:56;;;;;;;6.67;2.57;;;;;;;;;;4976227;28;20186;-90
2023/01/09 03:30:22;;;;;;;6.17;2.47;;;;;;;;;;4973790;28;20217;-89
2023/01/09 03:32:48;;;;;;;4.53;2.43;;;;;;;;;;4960159;28;20183;-89
2023/01/09 03:35:14;;;;;;;6.13;2.73;;;;;;;;;;4944424;28;20191;-91
2023/01/09 03:37:40;;;;;;;4.03;3.00;;;;;;;;;;4977162;28;20210;-83
2023/01/09 03:40:06;;;;;;;8.97;3.00;;;;;;;;;;4959273;28;20209;-83
2023/01/09 03:42:32;;;;;;;6.70;2.67;;;;;;;;;;4959710;28;20233;-83
2023/01/09 03:44:58;;;;;;;8.27;3.00;;;;;;;;;;4975042;28;20178;-83
2023/01/09 03:47:24;;;;;;;5.07;2.50;;;;;;;;;;4959630;28;20195;-84
2023/01/09 03:49:50;;;;;;;7.27;2.57;;;;;;;;;;4943167;28;20294;-83
2023/01/09 03:52:16;;;;;;;4.77;2.10;;;;;;;;;;4973184;28;20198;-83
2023/01/09 03:54:42;;;;;;;6.93;2.30;;;;;;;;;;4946970;28;20195;-83
2023/01/09 03:57:08;;;;;;;5.57;2.40;;;;;;;;;;4973704;28;20232;-83
2023/01/09 03:59:34;;;;;;;3.63;2.30;;;;;;;;;;4974690;28;20183;-83
2023/01/09 04:02:00;;;;;;;5.07;2.67;;;;;;;;;;4971868;28;20237;-83
2023/01/09 04:04:26;;;;;;;5.57;2.40;;;;;;;;;;4956318;29;20183;-83
2023/01/09 04:06:52;;;;;;;6.00;2.57;;;;;;;;;;4972635;28;20202;-83
2023/01/09 04:09:18;;;;;;;7.50;2.60;;;;;;;;;;4975225;28;20217;-83
2023/01/09 04:11:44;;;;;;;4.20;2.40;;;;;;;;;;4959183;28;20225;-89
2023/01/09 04:14:10;;;;;;;6.37;2.63;;;;;;;;;;4968787;28;20230;-89
2023/01/09 04:16:36;;;;;;;8.13;2.73;;;;;;;;;;4975600;28;20222;-91
2023/01/09 04:19:02;;;;;;;5.90;2.37;;;;;;;;;;4975499;28;20194;-88
2023/01/09 04:21:28;;;;;;;7.63;2.60;;;;;;;;;;4976203;28;20198;-90
2023/01/09 04:23:54;;;;;;;5.47;2.60;;;;;;;;;;4991875;28;20186;-88
2023/01/09 04:26:20;;;;;;;5.23;2.30;;;;;;;;;;4975231;28;20187;-83
2023/01/09 04:28:47;;;;;;;5.57;2.90;;;;;;;;;;4991148;28;20187;-83
2023/01/09 04:31:13;;;;;;;5.63;2.67;;;;;;;;;;4976133;28;20174;-84
2023/01/09 04:33:39;;;;;;;5.47;2.63;;;;;;;;;;4974750;28;20190;-83
2023/01/09 04:36:05;;;;;;;7.33;2.83;;;;;;;;;;4974652;28;20285;-83
2023/01/09 04:38:32;;;;;;;6.40;2.80;;;;;;;;;;4974949;28;20175;-88
2023/01/09 04:40:58;;;;;;;5.97;2.90;;;;;;;;;;4975173;28;20206;-88
2023/01/09 04:43:24;;;;;;;9.90;3.20;;;;;;;;;;4974866;28;20189;-89
2023/01/09 04:45:50;;;;;;;11.20;3.07;;;;;;;;;;4991178;28;20182;-89
2023/01/09 04:48:16;;;;;;;9.60;3.23;;;;;;;;;;4974802;28;20269;-88
2023/01/09 04:50:42;;;;;;;7.17;3.40;;;;;;;;;;4975133;28;20255;-91
2023/01/09 04:53:08;;;;;;;5.83;3.27;;;;;;;;;;4959162;28;20187;-89
2023/01/09 04:55:34;;;;;;;8.50;3.50;;;;;;;;;;4974599;28;20213;-89
2023/01/09 04:58:00;;;;;;;10.10;3.60;;;;;;;;;;4975451;28;20182;-89
2023/01/09 05:00:26;;;;;;;7.53;3.30;;;;;;;;;;4974940;28;20189;-83
2023/01/09 05:02:52;;;;;;;5.83;3.30;;;;;;;;;;4958703;28;20249;-83
2023/01/09 05:05:18;;;;;;;5.90;3.30;;;;;;;;;;4975435;28;20277;-83
2023/01/09 05:07:44;;;;;;;5.97;3.30;;;;;;;;;;4974994;28;20251;-83
2023/01/09 05:10:11;;;;;;;5.87;3.33;;;;;;;;;;4974111;28;20213;-83
2023/01/09 05:12:38;;;;;;;4.03;2.67;;;;;;;;;;4973572;28;20190;-83
2023/01/09 05:15:04;;;;;;;6.53;2.90;;;;;;;;;;4957790;28;20179;-83
2023/01/09 05:17:30;;;;;;;10.30;3.37;;;;;;;;;;4975062;28;20221;-83
2023/01/09 05:19:57;;;;;;;6.90;2.90;;;;;;;;;;4942495;28;20182;-83
2023/01/09 05:22:23;;;;;;;9.60;2.90;;;;;;;;;;4963057;28;20209;-83
2023/01/09 05:24:49;;;;;;;6.30;2.70;;;;;;;;;;4957815;28;20233;-83
2023/01/09 05:27:15;;;;;;;8.10;2.60;;;;;;;;;;4974774;28;20186;-83
2023/01/09 05:29:41;;;;;;;6.03;2.60;;;;;;;;;;4958099;28;20183;-83
2023/01/09 05:32:07;;;;;;;6.13;2.70;;;;;;;;;;4973693;28;20183;-83
2023/01/09 05:34:33;;;;;;;4.37;2.40;;;;;;;;;;4957800;28;20195;-79
2023/01/09 05:36:59;;;;;;;5.47;2.50;;;;;;;;;;4935032;29;20207;-79
2023/01/09 05:39:25;;;;;;;7.37;2.80;;;;;;;;;;4955077;29;20175;-79
2023/01/09 05:41:51;;;;;;;7.50;3.00;;;;;;;;;;4937874;29;20411;-79
2023/01/09 05:44:17;;;;;;;7.77;2.87;;;;;;;;;;4944279;28;20488;-79
2023/01/09 05:46:43;;;;;;;9.23;3.00;;;;;;;;;;4957862;28;20307;-79
2023/01/09 05:49:09;;;;;;;4.43;2.63;;;;;;;;;;4957874;28;20194;-79
2023/01/09 05:51:35;;;;;;;9.40;3.17;;;;;;;;;;4957513;28;20281;-79
2023/01/09 05:54:02;;;;;;;5.57;2.50;;;;;;;;;;4941565;28;20205;-79
2023/01/09 05:56:29;;;;;;;8.10;3.07;;;;;;;;;;4956963;28;20213;-80
2023/01/09 05:58:55;;;;;;;9.10;2.80;;;;;;;;;;4970289;28;20269;-79
2023/01/09 06:01:21;;;;;;;7.20;2.43;;;;;;;;;;4942125;28;20183;-79
2023/01/09 06:03:47;;;;;;;8.63;2.60;;;;;;;;;;4957950;28;20186;-79
2023/01/09 06:06:13;;;;;;;7.80;2.50;;;;;;;;;;4958404;28;20253;-79
2023/01/09 06:08:39;;;;;;;6.37;2.13;;;;;;;;;;4945619;28;20194;-90
2023/01/09 06:11:05;;;;;;;8.30;2.40;;;;;;;;;;4941981;28;20250;-79
2023/01/09 06:13:31;;;;;;;8.77;2.70;;;;;;;;;;4941444;28;20238;-80
2023/01/09 06:15:57;;;;;;;5.10;2.30;;;;;;;;;;4957597;28;20201;-79
2023/01/09 06:18:23;;;;;;;8.63;2.87;;;;;;;;;;4945858;28;20249;-80
2023/01/09 06:20:49;;;;;;;7.67;2.53;;;;;;;;;;4968750;28;20198;-80
2023/01/09 06:23:15;;;;;;;7.47;2.17;;;;;;;;;;4957495;28;20182;-82
2023/01/09 06:25:41;;;;;;;6.97;3.00;;;;;;;;;;4974293;28;20295;-83
2023/01/09 06:28:07;;;;;;;7.27;2.50;;;;;;;;;;4977087;28;20190;-83
2023/01/09 06:30:34;;;;;;;8.90;2.80;;;;;;;;;;4977116;28;20261;-83
2023/01/09 06:33:00;;;;;;;6.93;2.90;;;;;;;;;;4977201;28;20206;-83
2023/01/09 06:35:26;;;;;;;8.20;2.97;;;;;;;;;;4961115;28;20186;-83
2023/01/09 06:37:52;;;;;;;7.70;2.67;;;;;;;;;;4961068;28;20221;-83
2023/01/09 06:40:19;;;;;;;5.90;2.40;;;;;;;;;;4960993;28;20179;-92
2023/01/09 06:42:46;;;;;;;5.97;2.40;;;;;;;;;;4961424;28;20189;-91
2023/01/09 06:45:13;;;;;;;9.10;2.63;;;;;;;;;;4977580;28;20179;-91
2023/01/09 06:47:39;;;;;;;8.47;2.67;;;;;;;;;;4977995;28;20174;-91
2023/01/09 06:50:05;;;;;;;6.73;2.47;;;;;;;;;;4960887;28;20186;-90
2023/01/09 06:52:31;;;;;;;8.77;2.70;;;;;;;;;;4961423;28;20195;-89
2023/01/09 06:54:57;;;;;;;9.53;2.57;;;;;;;;;;4977175;28;20187;-83
2023/01/09 06:57:23;;;;;;;9.90;2.63;;;;;;;;;;4960760;28;20272;-83
2023/01/09 06:59:49;;;;;;;9.50;2.70;;;;;;;;;;4976604;28;20182;-83
2023/01/09 07:02:19;;;;;;;9.07;2.97;;;;;;;;;;4960717;28;20171;-83
2023/01/09 07:04:45;;;;;;;9.30;2.80;;;;;;;;;;4976578;28;20213;-83
2023/01/09 07:07:11;;;;;;;7.57;2.70;;;;;;;;;;4960858;28;20187;-82
2023/01/09 07:09:37;;;;;;;8.47;2.53;;;;;;;;;;4960711;28;20187;-83
2023/01/09 07:12:03;;;;;;;10.00;2.83;;;;;;;;;;4960587;28;20178;-82
2023/01/09 07:14:29;;;;;;;11.97;2.93;;;;;;;;;;4960406;28;20242;-83
2023/01/09 07:16:55;;;;;;;10.97;2.60;;;;;;;;;;4960596;28;20219;-83
2023/01/09 07:19:21;;;;;;;7.57;2.80;;;;;;;;;;4960190;28;20206;-83
2023/01/09 07:21:47;;;;;;;9.20;2.87;;;;;;;;;;4976259;28;20209;-83
2023/01/09 07:24:13;;;;;;;8.57;2.70;;;;;;;;;;4960085;28;20218;-83
2023/01/09 07:26:39;;;;;;;10.27;2.40;;;;;;;;;;4960147;28;20219;-83
2023/01/09 07:29:05;;;;;;;10.40;2.70;;;;;;;;;;4960381;28;20193;-83
2023/01/09 07:31:31;;;;;;;12.03;2.70;;;;;;;;;;4961220;28;20182;-90
2023/01/09 07:33:57;;;;;;;10.10;2.73;;;;;;;;;;4960137;28;20186;-80
2023/01/09 07:36:23;;;;;;;12.80;2.50;;;;;;;;;;4959986;28;20218;-83
2023/01/09 07:38:49;;;;;;;8.33;2.77;;;;;;;;;;4960243;28;20306;-83
2023/01/09 07:41:15;;;;;;;9.70;2.70;;;;;;;;;;4976126;28;20214;-83
2023/01/09 07:43:41;;;;;;;11.97;3.00;;;;;;;;;;4959660;28;20191;-83
2023/01/09 07:46:07;;;;;;;12.57;3.55;;;;;;;;;;4959418;28;20426;-83
2023/01/09 07:48:33;;;;;;;7.47;2.93;;;;;;;;;;4940222;29;20198;-83
2023/01/09 07:50:59;;;;;;;8.30;3.20;;;;;;;;;;4970384;23;20240;-80
2023/01/09 07:53:25;;;;;;;10.63;2.70;;;;;;;;;;4953647;28;20194;-80
2023/01/09 07:55:51;;;;;;;8.57;3.00;;;;;;;;;;4951889;28;20282;-81
2023/01/09 07:58:17;;;;;;;8.90;2.90;;;;;;;;;;4941343;29;20266;-81
2023/01/09 08:00:43;;;;;;;9.83;3.07;;;;;;;;;;4940312;29;20183;-80
2023/01/09 08:03:09;;;;;;;12.13;3.13;;;;;;;;;;4965179;28;20240;-84
2023/01/09 08:05:36;;;;;;;13.37;3.30;;;;;;;;;;4947221;28;20222;-83
2023/01/09 08:08:02;;;;;;;8.63;2.70;;;;;;;;;;4944193;28;20190;-84
2023/01/09 08:10:28;;;;;;;8.97;2.80;;;;;;;;;;4944291;28;20198;-84
2023/01/09 08:12:54;;;;;;;9.07;3.17;;;;;;;;;;4960235;28;20190;-84
2023/01/09 08:15:20;;;;;;;11.10;3.20;;;;;;;;;;4944332;28;20241;-84
2023/01/09 08:17:46;;;;;;;10.47;3.40;;;;;;;;;;4943658;28;20222;-84
2023/01/09 08:20:13;;;;;;;8.10;2.80;;;;;;;;;;4943979;28;20183;-78
2023/01/09 08:22:42;;;;;;;12.33;3.53;;;;;;;;;;4968832;28;20173;-78
2023/01/09 08:25:09;;;;;;;9.83;3.33;;;;;;;;;;4963491;28;20189;-78
2023/01/09 08:27:35;;;;;;;9.23;3.43;;;;;;;;;;4979222;28;20213;-77
2023/01/09 08:30:01;;;;;;;10.20;3.87;;;;;;;;;;4963177;28;20182;-78
2023/01/09 08:32:27;;;;;;;7.90;3.63;;;;;;;;;;4978921;28;20185;-77
2023/01/09 08:34:53;;;;;;;7.00;4.07;;;;;;;;;;4962397;28;20182;-78
2023/01/09 08:37:19;;;;;;;9.23;4.17;;;;;;;;;;4965341;28;20210;-80
2023/01/09 08:39:45;;;;;;;7.37;3.93;;;;;;;;;;4943523;28;20218;-80
2023/01/09 08:47:40;;;;;;;7.27;4.20;;;;;;;;;;4962985;28;20205;-80
2023/01/09 08:50:07;;;;;;;6.10;3.80;;;;;;;;;;4943300;28;20206;-80
2023/01/09 08:52:33;;;;;;;9.97;4.50;;;;;;;;;;4959696;28;20187;-80
2023/01/09 08:54:59;;;;;;;7.83;4.07;;;;;;;;;;4943008;28;20277;-83
2023/01/09 08:57:25;;;;;;;10.23;5.07;;;;;;;;;;4958528;28;20260;-83
2023/01/09 08:59:51;;;;;;;8.37;4.43;;;;;;;;;;4942674;28;20182;-83
2023/01/09 09:02:17;;;;;;;11.13;4.70;;;;;;;;;;4975728;28;20233;-82
2023/01/09 09:04:43;;;;;;;5.97;4.43;;;;;;;;;;4959190;28;20274;-83
2023/01/09 09:07:09;;;;;;;9.50;4.63;;;;;;;;;;4942500;28;20186;-82
2023/01/09 09:09:35;;;;;;;12.27;4.70;;;;;;;;;;4943309;28;20189;-82
2023/01/09 09:12:01;;;;;;;9.43;4.67;;;;;;;;;;4958908;28;20190;-82
2023/01/09 09:17:11;;;;;;;9.83;5.50;;;;;;;;;;4961926;28;20240;-83
2023/01/09 09:19:41;;;;;;;8.83;4.77;;;;;;;;;;4943545;28;20274;-83
2023/01/09 09:22:07;;;;;;;6.80;4.57;;;;;;;;;;4943758;28;20233;-83
2023/01/09 09:24:33;;;;;;;7.60;4.20;;;;;;;;;;4942745;28;20179;-83
2023/01/09 09:26:59;;;;;;;8.10;4.37;;;;;;;;;;4959099;28;20183;-83
2023/01/09 09:29:25;;;;;;;7.43;4.20;;;;;;;;;;4943125;28;20187;-85
2023/01/09 09:31:51;;;;;;;6.97;4.30;;;;;;;;;;4939524;29;20190;-84
2023/01/09 09:34:17;;;;;;;9.23;4.63;;;;;;;;;;4923409;29;20191;-84
2023/01/09 09:36:43;;;;;;;7.27;4.90;;;;;;;;;;4923787;29;20251;-85
2023/01/09 09:39:09;;;;;;;10.57;5.57;;;;;;;;;;4924142;29;20186;-84
2023/01/09 09:44:42;;;;;;;12.43;5.40;;;;;;;;;;4959148;28;20194;-81
2023/01/09 09:47:14;;;;;;;7.50;4.47;;;;;;;;;;4977584;28;20188;-81
2023/01/09 09:49:50;;;;;;;5.77;3.77;;;;;;;;;;4994709;28;20205;-81
2023/01/09 09:52:27;;;;;;;7.50;4.37;;;;;;;;;;4977727;28;20229;-81
2023/01/09 09:54:55;;;;;;;7.43;4.07;;;;;;;;;;4977771;28;20213;-81
2023/01/09 09:57:24;;;;;;;7.03;4.27;;;;;;;;;;4977455;28;20210;-81
2023/01/09 09:59:50;;;;;;;9.30;4.20;;;;;;;;;;4977536;28;20181;-84
2023/01/09 10:02:31;;;;;;;9.50;4.60;;;;;;;;;;4964360;28;20201;-85
2023/01/09 10:04:59;;;;;;;9.70;4.27;;;;;;;;;;4981300;28;20184;-84
2023/01/09 10:07:29;;;;;;;11.83;4.53;;;;;;;;;;4982187;28;20178;-84
2023/01/09 10:09:59;;;;;;;8.57;4.10;;;;;;;;;;4981070;28;20185;-85
2023/01/09 10:12:27;;;;;;;8.60;4.23;;;;;;;;;;4980808;28;20186;-85
2023/01/09 10:14:58;;;;;;;11.40;4.33;;;;;;;;;;4980813;28;20261;-85
2023/01/09 10:17:24;;;;;;;10.97;4.33;;;;;;;;;;4998117;28;20212;-79
2023/01/09 10:19:50;;;;;;;12.57;4.60;;;;;;;;;;4997957;28;20178;-79
2023/01/09 10:22:19;;;;;;;10.90;4.90;;;;;;;;;;4961441;28;20183;-79
2023/01/09 10:24:48;;;;;;;12.10;5.93;;;;;;;;;;4941733;29;20270;-79
2023/01/09 10:27:24;;;;;;;11.50;5.67;;;;;;;;;;4980188;28;20185;-79
2023/01/09 10:29:56;;;;;;;10.50;5.80;;;;;;;;;;4986888;28;20185;-79
2023/01/09 10:32:30;;;;;;;8.27;6.27;;;;;;;;;;4969707;28;20198;-79
2023/01/09 10:34:59;;;;;;;11.70;6.57;;;;;;;;;;4980473;28;20265;-81
2023/01/09 10:37:28;;;;;;;11.90;6.30;;;;;;;;;;4997508;28;20209;-81
2023/01/09 10:40:13;;;;;;;12.23;6.53;;;;;;;;;;4963811;28;20238;-81
2023/01/09 10:42:44;;;;;;;9.87;5.83;;;;;;;;;;4961370;28;20188;-79
2023/01/09 10:45:16;;;;;;;8.50;5.63;;;;;;;;;;4961327;28;20238;-82
2023/01/09 10:47:43;;;;;;;8.20;4.90;;;;;;;;;;4960830;28;20187;-82
2023/01/09 10:50:17;;;;;;;7.13;4.47;;;;;;;;;;4960835;28;20187;-79
2023/01/09 10:52:44;;;;;;;7.67;4.03;;;;;;;;;;4960525;28;20257;-79
2023/01/09 10:55:13;;;;;;;5.67;3.60;;;;;;;;;;4960533;28;20182;-78
2023/01/09 10:57:44;;;;;;;6.43;3.90;;;;;;;;;;4955900;29;20242;-79
2023/01/09 11:00:15;;;;;;;5.70;3.63;;;;;;;;;;4941420;29;20179;-79
2023/01/09 11:02:41;;;;;;;8.23;3.50;;;;;;;;;;4942223;29;20183;-78
2023/01/09 11:05:11;;;;;;;7.03;3.70;;;;;;;;;;4942283;29;20192;-79
2023/01/09 11:07:39;;;;;;;7.23;4.00;;;;;;;;;;4959070;29;20183;-82
2023/01/09 11:10:10;;;;;;;4.50;3.60;;;;;;;;;;4941826;29;20242;-82
2023/01/09 11:12:37;;;;;;;4.60;4.13;;;;;;;;;;4941893;29;20330;-82
2023/01/09 11:15:15;;;;;;;5.13;3.80;;;;;;;;;;4948388;28;20187;-82
2023/01/09 11:17:42;;;;;;;7.10;3.40;;;;;;;;;;4961037;28;20206;-82
2023/01/09 11:20:19;;;;;;;5.13;3.13;;;;;;;;;;4972856;28;20182;-82
2023/01/09 11:22:46;;;;;;;4.17;2.87;;;;;;;;;;4997721;28;20170;-82
2023/01/09 11:25:16;;;;;;;4.40;3.00;;;;;;;;;;4997952;28;20186;-79
2023/01/09 11:27:42;;;;;;;4.20;2.60;;;;;;;;;;4980226;28;20182;-79
2023/01/09 11:30:14;;;;;;;4.63;2.60;;;;;;;;;;4964007;28;20213;-79
2023/01/09 11:32:41;;;;;;;5.00;2.53;;;;;;;;;;4977976;28;20501;-79
2023/01/09 11:35:14;;;;;;;7.73;2.87;;;;;;;;;;4960798;28;20182;-79
2023/01/09 11:37:41;;;;;;;5.10;2.40;;;;;;;;;;4960625;28;20311;-79
2023/01/09 11:40:16;;;;;;;5.20;2.40;;;;;;;;;;4960705;28;20203;-78
2023/01/09 11:43:00;;;;;;;4.50;2.90;;;;;;;;;;4960230;28;20178;-77
2023/01/09 11:45:31;;;;;;;3.70;2.90;;;;;;;;;;4960230;28;20265;-78
2023/01/09 11:47:57;;;;;;;8.17;3.03;;;;;;;;;;4960830;28;20182;-77
2023/01/09 11:50:23;;;;;;;5.50;3.00;;;;;;;;;;4948609;29;20202;-77
2023/01/09 11:53:09;;;;;;;5.13;3.00;;;;;;;;;;4940762;29;20231;-77
2023/01/09 11:55:35;;;;;;;6.27;3.00;;;;;;;;;;4941046;29;20179;-77
2023/01/09 11:58:01;;;;;;;7.33;3.10;;;;;;;;;;4956728;28;20265;-77
2023/01/09 12:00:29;;;;;;;5.67;2.97;;;;;;;;;;4960208;28;20186;-78
2023/01/09 12:03:21;;;;;;;7.30;3.00;;;;;;;;;;4959889;28;20262;-78
2023/01/09 12:05:59;;;;;;;6.50;2.90;;;;;;;;;;4937924;28;20191;-78
2023/01/09 12:08:39;;;;;;;7.67;2.80;;;;;;;;;;4960026;28;20187;-78
2023/01/09 12:11:24;;;;;;;3.90;2.30;;;;;;;;;;4959575;28;20213;-78
2023/01/09 12:14:09;;;;;;;6.37;2.53;;;;;;;;;;4959839;28;20193;-79
2023/01/09 12:16:43;;;;;;;6.17;2.40;;;;;;;;;;4959867;28;20214;-79
2023/01/09 12:19:22;;;;;;;6.17;2.40;;;;;;;;;;4960005;28;20245;-79
2023/01/09 12:22:24;;;;;;;7.00;2.80;;;;;;;;;;4959744;28;20210;-79
2023/01/09 12:25:10;;;;;;;7.20;2.93;;;;;;;;;;4901083;29;20184;-79
2023/01/09 12:27:36;;;;;;;8.07;2.50;;;;;;;;;;4956217;28;20210;-79
2023/01/09 12:30:21;;;;;;;7.57;2.40;;;;;;;;;;4959740;28;20182;-78
2023/01/09 12:32:50;;;;;;;9.37;2.97;;;;;;;;;;4959936;28;20218;-79
2023/01/09 12:35:31;;;;;;;7.13;2.70;;;;;;;;;;4959747;28;20189;-79
2023/01/09 12:38:04;;;;;;;10.00;2.87;;;;;;;;;;4959721;28;20293;-79
2023/01/09 12:40:52;;;;;;;8.90;3.33;;;;;;;;;;4959522;28;20178;-78
2023/01/09 12:43:24;;;;;;;12.03;3.10;;;;;;;;;;4975971;28;20183;-79
2023/01/09 12:45:50;;;;;;;9.03;2.77;;;;;;;;;;4959278;28;20178;-79
2023/01/09 12:48:19;;;;;;;9.27;3.70;;;;;;;;;;4959856;28;20185;-79
2023/01/09 12:50:52;;;;;;;11.93;3.23;;;;;;;;;;4958826;28;20217;-79
2023/01/09 12:53:45;;;;;;;12.37;3.73;;;;;;;;;;4976227;28;20189;-78
2023/01/09 12:56:25;;;;;;;7.00;3.50;;;;;;;;;;4954855;28;20245;-79
2023/01/09 12:58:55;;;;;;;9.33;3.57;;;;;;;;;;4958859;28;20201;-78
2023/01/09 13:01:25;;;;;;;9.70;3.13;;;;;;;;;;4958438;28;20179;-79
2023/01/09 13:03:54;;;;;;;11.93;3.43;;;;;;;;;;4958984;28;20183;-81
2023/01/09 13:06:22;;;;;;;7.43;3.33;;;;;;;;;;4959138;28;20186;-81
2023/01/09 13:08:56;;;;;;;11.60;3.40;;;;;;;;;;4959176;28;20225;-81
2023/01/09 13:11:31;;;;;;;14.67;4.20;;;;;;;;;;4959005;28;20174;-81
2023/01/09 13:14:11;;;;;;;13.17;3.30;;;;;;;;;;4975913;28;20253;-81
2023/01/09 13:16:40;;;;;;;12.83;3.50;;;;;;;;;;4958771;28;20202;-81
2023/01/09 13:19:26;;;;;;;9.77;3.20;;;;;;;;;;4958907;28;20201;-81
2023/01/09 13:21:53;;;;;;;11.67;3.70;;;;;;;;;;4959016;28;20267;-84
2023/01/09 13:24:22;;;;;;;9.63;3.70;;;;;;;;;;4958615;28;20185;-83
2023/01/09 13:26:50;;;;;;;11.90;3.43;;;;;;;;;;4958968;28;20187;-83
2023/01/09 13:29:27;;;;;;;15.13;3.53;;;;;;;;;;4958773;28;20190;-83
2023/01/09 13:31:53;;;;;;;12.03;3.57;;;;;;;;;;4958052;28;20240;-83
2023/01/09 13:34:21;;;;;;;9.17;3.27;;;;;;;;;;4958574;28;20187;-83
2023/01/09 13:36:48;;;;;;;13.83;3.33;;;;;;;;;;4963839;28;20238;-83
2023/01/09 13:39:24;;;;;;;12.13;3.83;;;;;;;;;;4968883;28;20183;-80
2023/01/09 13:44:38;;;;;;;6.97;2.73;;;;;;;;;;4980003;28;20188;-80
2023/01/09 13:47:04;;;;;;;9.73;3.00;;;;;;;;;;4962404;28;20237;-81
2023/01/09 13:49:33;;;;;;;16.17;3.77;;;;;;;;;;4962646;28;20183;-81
2023/01/09 13:52:04;;;;;;;10.20;3.00;;;;;;;;;;4962915;28;20240;-81
2023/01/09 13:54:50;;;;;;;10.20;3.10;;;;;;;;;;4962417;28;20210;-79
2023/01/09 13:57:19;;;;;;;7.97;3.40;;;;;;;;;;4945447;28;20250;-79
2023/01/09 13:59:47;;;;;;;14.07;3.90;;;;;;;;;;4961888;28;20183;-79
2023/01/09 14:02:32;;;;;;;11.43;3.63;;;;;;;;;;4958545;29;20210;-79
2023/01/09 14:04:58;;;;;;;8.23;3.43;;;;;;;;;;4942712;29;20175;-79
2023/01/09 14:07:25;;;;;;;14.37;4.23;;;;;;;;;;4942955;29;20222;-79
2023/01/09 14:09:57;;;;;;;9.53;3.70;;;;;;;;;;4942804;29;20183;-81
2023/01/09 14:12:24;;;;;;;13.37;4.10;;;;;;;;;;4943154;29;20194;-81
2023/01/09 14:14:52;;;;;;;11.93;4.47;;;;;;;;;;4942566;29;20222;-81
2023/01/09 14:17:44;;;;;;;7.80;3.60;;;;;;;;;;4942596;29;20211;-81
2023/01/09 14:20:24;;;;;;;9.50;3.73;;;;;;;;;;4954236;28;20195;-81
2023/01/09 14:22:56;;;;;;;15.17;3.67;;;;;;;;;;4942008;29;20184;-81
2023/01/09 14:25:24;;;;;;;11.23;3.27;;;;;;;;;;4942241;29;20190;-81
2023/01/09 14:27:50;;;;;;;9.27;3.30;;;;;;;;;;4942614;29;20226;-83
2023/01/09 14:30:27;;;;;;;8.90;3.17;;;;;;;;;;4942813;29;20241;-84
2023/01/09 14:33:02;;;;;;;7.07;2.47;;;;;;;;;;4942925;29;20183;-84
2023/01/09 14:35:32;;;;;;;7.30;2.60;;;;;;;;;;4942769;29;20238;-83
2023/01/09 14:38:04;;;;;;;8.70;2.30;;;;;;;;;;4942620;29;20219;-84
2023/01/09 14:40:31;;;;;;;8.77;2.23;;;;;;;;;;4942498;29;20176;-84
2023/01/09 14:43:00;;;;;;;7.60;2.10;;;;;;;;;;4942737;29;20187;-81
2023/01/09 14:45:27;;;;;;;5.40;2.10;;;;;;;;;;4942252;29;20183;-81
2023/01/09 14:47:55;;;;;;;5.40;2.23;;;;;;;;;;4941349;29;20187;-81
2023/01/09 14:50:27;;;;;;;6.60;2.17;;;;;;;;;;4942305;29;20266;-81
2023/01/09 14:53:03;;;;;;;5.50;2.07;;;;;;;;;;4942198;29;20247;-81
2023/01/09 14:55:33;;;;;;;5.60;2.30;;;;;;;;;;4942554;29;20192;-81
2023/01/09 14:58:12;;;;;;;7.57;2.83;;;;;;;;;;4942141;29;20211;-81
2023/01/09 15:00:45;;;;;;;5.53;2.20;;;;;;;;;;4977432;28;20241;-81
2023/01/09 15:03:11;;;;;;;5.00;2.17;;;;;;;;;;4961404;28;20179;-81
2023/01/09 15:05:37;;;;;;;9.23;2.47;;;;;;;;;;4945021;28;20210;-81
2023/01/09 15:08:04;;;;;;;6.37;2.80;;;;;;;;;;4945393;28;20191;-81